Terminal Aerodrome Forecast
Issued by NWS

Home | Current Version | Previous Version | Text Only | Print | Product List | Glossary On
Versions: 1 2 3 4 5 6 7 8 9 10 11 12 13 14 15 16 17 18 19 20 21 22 23 24 25 26 27 28 29 30 31 32 33 34 35 36 37 38
000
FTUS43 KDVN 191736
TAFCID
TAF
KCID 191736Z 1918/2018 11007KT 2SM -RA BR SCT004 OVC030
      TEMPO 1918/1920 3SM -RA BR
     FM192100 10006KT 2SM -RA BR OVC010
     FM192300 10005KT 1SM -RA BR OVC006
     FM200400 10004KT 1/2SM -DZ FG OVC003
     FM200800 08003KT 1/4SM -DZ FG OVC001=

USA.gov is the U.S. government's official web portal to all federal, state and local government web resources and services.